Time;durP1;ratioP1;P1;durP2;ratioP2;P2;SDS_P1;SDS_P2;PMS_P1;PMS_P2;Temp;Humidity;BMP_temperature;BMP_pressure;BME280_temperature;BME280_humidity;BME280_pressure;Samples;Min_cycle;Max_cycle;Signal;HPM_P1;HPM_P2
2021/09/09 00:00:22;;;;;;;23.70;12.55;;;23.40;54.90;;;;;;6172548;28;83972;-64
2021/09/09 00:03:23;;;;;;;20.63;12.70;;;23.40;55.00;;;;;;6182599;28;82893;-64
2021/09/09 00:06:24;;;;;;;21.15;13.10;;;23.40;55.00;;;;;;6190950;28;83905;-64
2021/09/09 00:09:24;;;;;;;21.73;13.32;;;23.40;55.00;;;;;;6179103;28;83580;-64
2021/09/09 00:12:25;;;;;;;21.88;13.05;;;23.40;54.90;;;;;;6172842;28;84189;-64
2021/09/09 00:15:27;;;;;;;24.33;13.43;;;23.40;54.70;;;;;;6182450;28;83364;-64
2021/09/09 00:18:27;;;;;;;22.88;13.25;;;23.40;54.80;;;;;;6190402;28;83382;-63
2021/09/09 00:21:28;;;;;;;23.45;13.70;;;23.40;54.80;;;;;;6180108;28;85749;-64
2021/09/09 00:24:29;;;;;;;21.83;13.60;;;23.40;54.80;;;;;;6182728;28;84973;-64
2021/09/09 00:27:29;;;;;;;24.42;12.88;;;23.40;54.90;;;;;;6175938;28;83703;-63
2021/09/09 00:30:31;;;;;;;21.83;12.68;;;23.40;54.90;;;;;;6181842;28;82788;-63
2021/09/09 00:33:34;;;;;;;24.60;14.05;;;23.40;54.90;;;;;;6178590;28;82879;-63
2021/09/09 00:36:35;;;;;;;22.05;13.63;;;23.30;54.50;;;;;;6179366;28;82709;-64
2021/09/09 00:39:35;;;;;;;20.67;13.55;;;23.40;54.50;;;;;;6172338;28;83696;-64
2021/09/09 00:42:36;;;;;;;18.30;11.68;;;23.40;54.60;;;;;;6167786;28;83120;-64
2021/09/09 00:45:37;;;;;;;22.95;13.10;;;23.40;54.60;;;;;;6180601;28;83230;-64
2021/09/09 00:48:38;;;;;;;22.52;13.25;;;23.30;54.50;;;;;;6176928;28;83412;-64
2021/09/09 00:51:38;;;;;;;21.15;13.90;;;23.30;54.40;;;;;;6182259;28;83093;-64
2021/09/09 00:54:38;;;;;;;23.35;13.35;;;23.40;54.40;;;;;;6184886;28;82833;-65
2021/09/09 00:57:39;;;;;;;22.10;13.68;;;23.30;54.20;;;;;;6193979;28;89979;-64
2021/09/09 01:00:40;;;;;;;19.88;12.68;;;23.30;54.00;;;;;;6180194;28;83891;-64
2021/09/09 01:03:40;;;;;;;20.55;12.43;;;23.30;54.10;;;;;;6169274;28;83215;-64
2021/09/09 01:06:40;;;;;;;23.20;12.88;;;23.30;54.00;;;;;;6162164;28;83182;-65
2021/09/09 01:09:41;;;;;;;22.35;13.60;;;23.30;54.00;;;;;;6178463;28;83575;-64
2021/09/09 01:12:41;;;;;;;21.45;13.20;;;23.30;53.90;;;;;;6180273;28;82910;-64
2021/09/09 01:15:42;;;;;;;20.70;12.35;;;23.30;53.70;;;;;;6180809;28;83160;-64
2021/09/09 01:18:42;;;;;;;21.00;12.40;;;23.30;53.80;;;;;;6179380;28;83088;-64
2021/09/09 01:21:43;;;;;;;19.23;12.52;;;23.30;53.80;;;;;;6177348;28;83465;-64
2021/09/09 01:24:43;;;;;;;19.63;13.10;;;23.30;53.70;;;;;;6176864;28;83114;-64
2021/09/09 01:27:44;;;;;;;20.48;12.55;;;23.30;54.40;;;;;;6177462;28;83670;-64
2021/09/09 01:30:46;;;;;;;17.08;12.10;;;23.30;53.70;;;;;;6176966;28;83617;-64
2021/09/09 01:33:46;;;;;;;18.95;12.00;;;23.30;53.80;;;;;;6177713;28;83548;-64
2021/09/09 01:36:46;;;;;;;17.75;11.48;;;23.30;53.80;;;;;;6178933;28;83983;-64
2021/09/09 01:39:47;;;;;;;19.05;11.43;;;23.30;53.70;;;;;;6178559;28;83309;-63
2021/09/09 01:42:47;;;;;;;19.73;11.88;;;23.30;53.80;;;;;;6181387;28;83079;-63
2021/09/09 01:45:48;;;;;;;19.20;12.20;;;23.30;53.90;;;;;;6175241;28;83235;-64
2021/09/09 01:48:48;;;;;;;15.43;10.95;;;23.30;53.80;;;;;;6178844;28;82802;-64
2021/09/09 01:51:49;;;;;;;22.23;11.88;;;23.30;53.70;;;;;;6173125;28;86074;-64
2021/09/09 01:54:49;;;;;;;18.17;11.93;;;23.20;53.60;;;;;;6180493;28;83315;-64
2021/09/09 01:57:50;;;;;;;17.13;11.05;;;23.30;53.70;;;;;;6177710;28;82777;-64
2021/09/09 02:00:50;;;;;;;22.15;11.93;;;23.20;53.50;;;;;;6177392;28;83338;-64
2021/09/09 02:03:51;;;;;;;17.38;11.13;;;23.20;53.70;;;;;;6178449;28;84359;-64
2021/09/09 02:06:51;;;;;;;16.45;10.63;;;23.20;53.50;;;;;;6190379;28;82994;-64
2021/09/09 02:09:52;;;;;;;18.42;11.50;;;23.20;53.50;;;;;;6181435;28;84001;-64
2021/09/09 02:12:52;;;;;;;17.55;11.23;;;23.20;53.40;;;;;;6187177;28;84099;-64
2021/09/09 02:15:53;;;;;;;16.25;10.65;;;23.20;53.20;;;;;;6183373;28;83318;-63
2021/09/09 02:18:53;;;;;;;15.13;10.05;;;23.20;53.20;;;;;;6174887;28;83176;-63
2021/09/09 02:21:54;;;;;;;16.08;11.13;;;23.20;53.70;;;;;;6179366;28;83023;-63
2021/09/09 02:24:54;;;;;;;16.80;9.82;;;23.20;53.20;;;;;;6179977;28;83639;-63
2021/09/09 02:27:55;;;;;;;15.13;10.48;;;23.20;53.00;;;;;;6194191;28;81719;-64
2021/09/09 02:30:55;;;;;;;18.20;10.68;;;23.20;53.00;;;;;;6184549;28;83640;-64
2021/09/09 02:33:56;;;;;;;15.73;10.50;;;23.20;53.00;;;;;;6178593;28;83057;-64
2021/09/09 02:36:56;;;;;;;15.13;10.23;;;23.20;52.90;;;;;;6178633;28;83118;-63
2021/09/09 02:39:56;;;;;;;17.50;10.57;;;23.20;53.00;;;;;;6171267;28;83347;-64
2021/09/09 02:42:57;;;;;;;17.90;10.13;;;23.20;52.90;;;;;;6174003;28;84495;-63
2021/09/09 02:45:58;;;;;;;16.50;10.13;;;23.20;52.70;;;;;;6187907;28;83123;-64
2021/09/09 02:48:58;;;;;;;13.95;9.18;;;23.20;52.70;;;;;;6177622;28;83500;-63
2021/09/09 02:51:58;;;;;;;18.10;10.32;;;23.20;52.70;;;;;;6189466;28;82952;-63
2021/09/09 02:54:59;;;;;;;17.60;10.25;;;23.10;52.70;;;;;;6170631;28;83159;-63
2021/09/09 02:57:59;;;;;;;14.82;9.60;;;23.10;52.60;;;;;;6185360;28;83585;-63
2021/09/09 03:01:00;;;;;;;13.55;9.38;;;23.10;52.70;;;;;;6193692;28;83009;-63
2021/09/09 03:04:00;;;;;;;16.20;9.85;;;23.10;52.80;;;;;;6193576;28;80524;-64
2021/09/09 03:07:01;;;;;;;15.40;9.63;;;23.10;52.80;;;;;;6195411;28;80388;-63
2021/09/09 03:10:01;;;;;;;14.30;9.48;;;23.10;52.80;;;;;;6184203;28;80447;-64
2021/09/09 03:13:02;;;;;;;14.85;9.52;;;23.20;53.00;;;;;;6183484;28;80798;-64
2021/09/09 03:16:02;;;;;;;15.60;9.02;;;23.20;53.10;;;;;;6184245;28;80592;-64
2021/09/09 03:19:03;;;;;;;14.15;9.43;;;23.10;53.30;;;;;;6178595;28;81410;-64
2021/09/09 03:22:03;;;;;;;13.13;8.70;;;23.10;53.50;;;;;;6184792;28;81112;-64
2021/09/09 03:25:04;;;;;;;15.38;9.40;;;23.10;53.70;;;;;;6194199;28;80907;-64
2021/09/09 03:28:04;;;;;;;12.90;8.70;;;23.10;53.90;;;;;;6180309;28;81475;-64
2021/09/09 03:31:05;;;;;;;14.80;9.40;;;23.10;53.80;;;;;;6183616;28;81461;-64
2021/09/09 03:34:05;;;;;;;15.40;9.60;;;23.10;53.90;;;;;;6173707;28;80388;-63
2021/09/09 03:37:06;;;;;;;12.27;8.48;;;23.10;54.10;;;;;;6193919;28;80305;-65
2021/09/09 03:40:06;;;;;;;12.25;8.70;;;23.10;54.10;;;;;;6202325;28;80587;-64
2021/09/09 03:43:07;;;;;;;15.45;8.95;;;23.20;54.00;;;;;;6184637;28;80388;-64
2021/09/09 03:46:07;;;;;;;13.52;8.88;;;23.20;54.00;;;;;;6186049;28;80393;-64
2021/09/09 03:49:08;;;;;;;13.23;8.93;;;23.10;53.80;;;;;;6183866;28;80523;-64
2021/09/09 03:52:09;;;;;;;14.35;8.77;;;23.10;53.70;;;;;;6185296;28;81442;-63
2021/09/09 03:55:09;;;;;;;13.60;8.68;;;23.10;53.50;;;;;;6178169;28;80866;-66
2021/09/09 03:58:10;;;;;;;13.68;7.82;;;23.10;53.60;;;;;;6180307;28;81555;-62
2021/09/09 04:01:10;;;;;;;11.02;8.02;;;23.10;54.10;;;;;;6185164;28;80885;-62
2021/09/09 04:04:11;;;;;;;14.10;8.07;;;23.10;54.60;;;;;;6184742;28;80380;-62
2021/09/09 04:07:11;;;;;;;11.48;7.10;;;23.10;54.90;;;;;;6176372;28;82918;-62
2021/09/09 04:10:12;;;;;;;14.95;7.57;;;23.10;54.80;;;;;;6188793;28;81502;-61
2021/09/09 04:13:12;;;;;;;13.68;7.57;;;23.20;55.20;;;;;;6174323;28;83347;-62
2021/09/09 04:16:12;;;;;;;14.60;8.32;;;23.20;55.10;;;;;;6171198;28;80005;-62
2021/09/09 04:19:13;;;;;;;12.15;7.85;;;23.30;55.30;;;;;;6178314;28;80430;-62
2021/09/09 04:22:14;;;;;;;11.63;8.25;;;23.20;55.10;;;;;;6171553;28;81827;-62
2021/09/09 04:25:14;;;;;;;14.90;8.10;;;23.20;54.80;;;;;;6181730;28;80865;-62
2021/09/09 04:28:14;;;;;;;16.33;7.68;;;23.30;56.20;;;;;;6184323;28;80572;-63
2021/09/09 04:31:15;;;;;;;12.45;8.15;;;23.30;55.50;;;;;;6183414;28;82852;-62
2021/09/09 04:34:15;;;;;;;15.30;8.77;;;23.30;55.50;;;;;;6182530;28;80248;-62
2021/09/09 04:37:16;;;;;;;13.27;8.55;;;23.30;55.80;;;;;;6178360;28;80395;-62
2021/09/09 04:40:16;;;;;;;17.67;9.82;;;23.30;55.90;;;;;;6182391;28;80835;-62
2021/09/09 04:43:17;;;;;;;14.48;9.55;;;23.30;55.80;;;;;;6179170;28;80936;-62
2021/09/09 04:46:17;;;;;;;18.48;9.88;;;23.20;56.00;;;;;;6180991;28;80594;-62
2021/09/09 04:49:18;;;;;;;22.52;10.18;;;23.20;56.20;;;;;;6195120;28;80165;-61
2021/09/09 04:52:18;;;;;;;19.90;12.18;;;23.30;56.70;;;;;;6179719;28;82978;-62
2021/09/09 04:55:19;;;;;;;22.65;12.77;;;23.30;57.10;;;;;;6170371;28;84208;-62
2021/09/09 04:58:19;;;;;;;24.58;13.85;;;23.30;57.00;;;;;;6172738;28;87210;-64
2021/09/09 05:01:20;;;;;;;27.77;14.68;;;23.30;57.00;;;;;;6187260;28;84392;-63
2021/09/09 05:04:20;;;;;;;18.88;12.02;;;23.40;57.40;;;;;;6172530;28;85593;-65
2021/09/09 05:07:21;;;;;;;20.90;12.35;;;23.40;57.30;;;;;;6181804;28;83505;-65
2021/09/09 05:10:21;;;;;;;21.95;12.32;;;23.40;57.10;;;;;;6176789;28;83436;-64
2021/09/09 05:13:21;;;;;;;21.80;12.25;;;23.40;57.00;;;;;;6183549;28;83909;-64
2021/09/09 05:16:22;;;;;;;21.60;12.43;;;23.40;56.50;;;;;;6179612;28;83153;-63
2021/09/09 05:19:22;;;;;;;19.05;11.50;;;23.40;56.70;;;;;;6170807;28;83066;-64
2021/09/09 05:22:23;;;;;;;18.85;11.05;;;23.40;56.50;;;;;;6180340;28;83674;-65
2021/09/09 05:25:23;;;;;;;22.13;11.82;;;23.40;56.30;;;;;;6171149;28;83591;-66
2021/09/09 05:28:24;;;;;;;20.88;11.40;;;23.40;57.00;;;;;;6170079;28;84118;-65
2021/09/09 05:31:24;;;;;;;18.25;10.65;;;23.40;56.70;;;;;;6167526;28;83057;-63
2021/09/09 05:34:25;;;;;;;21.02;11.23;;;23.40;56.60;;;;;;6178135;28;83073;-64
2021/09/09 05:37:25;;;;;;;16.58;10.52;;;23.40;56.30;;;;;;6183489;28;82957;-64
2021/09/09 05:40:26;;;;;;;19.70;10.93;;;23.40;56.40;;;;;;6168767;28;83077;-63
2021/09/09 05:43:26;;;;;;;20.90;10.77;;;23.40;57.20;;;;;;6180717;28;85492;-63
2021/09/09 05:46:27;;;;;;;17.30;10.27;;;23.40;57.30;;;;;;6179741;28;82988;-63
2021/09/09 05:49:27;;;;;;;20.65;11.48;;;23.50;57.10;;;;;;6180295;28;83651;-63
2021/09/09 05:52:28;;;;;;;20.30;11.35;;;23.40;56.40;;;;;;6177017;28;82956;-63
2021/09/09 05:55:28;;;;;;;18.33;12.63;;;23.40;56.30;;;;;;6178854;28;84304;-63
2021/09/09 05:58:29;;;;;;;20.90;13.02;;;23.40;55.70;;;;;;6175763;28;82984;-63
2021/09/09 06:01:29;;;;;;;22.50;13.73;;;23.40;55.60;;;;;;6174822;28;88349;-63
2021/09/09 06:04:34;;;;;;;22.42;13.38;;;23.40;54.90;;;;;;6178496;28;83115;-63
2021/09/09 06:07:34;;;;;;;26.85;13.35;;;23.40;55.20;;;;;;6178436;28;83575;-63
2021/09/09 06:10:35;;;;;;;21.50;13.27;;;23.40;55.20;;;;;;6178427;28;84630;-63
2021/09/09 06:13:35;;;;;;;27.52;15.07;;;23.40;55.10;;;;;;6165024;28;83144;-63
2021/09/09 06:16:36;;;;;;;26.95;15.45;;;23.30;54.80;;;;;;6172784;28;82892;-63
2021/09/09 06:19:36;;;;;;;24.80;14.55;;;23.30;54.60;;;;;;6176741;28;82909;-63
2021/09/09 06:22:37;;;;;;;26.58;15.25;;;23.30;54.90;;;;;;6167068;28;83475;-63
2021/09/09 06:25:37;;;;;;;25.80;16.17;;;23.30;54.70;;;;;;6177402;28;83421;-63
2021/09/09 06:28:38;;;;;;;27.08;15.73;;;23.30;54.80;;;;;;6159200;28;84267;-63
2021/09/09 06:31:38;;;;;;;27.90;16.63;;;23.30;54.80;;;;;;6152493;28;83691;-63
2021/09/09 06:34:38;;;;;;;29.02;15.93;;;23.30;54.80;;;;;;6166917;28;83261;-63
2021/09/09 06:37:39;;;;;;;28.42;16.35;;;23.30;54.80;;;;;;6175351;28;83540;-63
2021/09/09 06:40:40;;;;;;;25.45;15.32;;;23.30;54.80;;;;;;6174619;28;83296;-63
2021/09/09 06:43:40;;;;;;;24.50;15.68;;;23.30;54.80;;;;;;6174999;28;83293;-63
2021/09/09 06:46:41;;;;;;;25.80;15.52;;;23.30;54.70;;;;;;6180735;28;84577;-63
2021/09/09 06:49:41;;;;;;;30.52;17.00;;;23.30;54.70;;;;;;6188042;28;82884;-63
2021/09/09 06:52:42;;;;;;;32.90;17.20;;;23.30;54.80;;;;;;6180119;28;84101;-63
2021/09/09 06:55:42;;;;;;;27.85;16.65;;;23.30;54.70;;;;;;6182147;28;83145;-63
2021/09/09 06:58:43;;;;;;;31.90;15.65;;;23.30;54.90;;;;;;6184551;28;82911;-62
2021/09/09 07:01:43;;;;;;;32.05;17.33;;;23.30;55.10;;;;;;6178257;28;82712;-65
2021/09/09 07:04:44;;;;;;;32.83;15.50;;;23.30;54.90;;;;;;6178925;28;83759;-66
2021/09/09 07:07:44;;;;;;;31.42;16.52;;;23.30;55.20;;;;;;6172468;28;83218;-63
2021/09/09 07:10:45;;;;;;;29.38;16.55;;;23.30;55.20;;;;;;6185350;28;83137;-64
2021/09/09 07:13:45;;;;;;;37.05;16.98;;;23.30;55.20;;;;;;6180481;28;83109;-64
2021/09/09 07:16:47;;;;;;;39.22;16.77;;;23.30;55.50;;;;;;6184504;28;83920;-64
2021/09/09 07:19:47;;;;;;;29.17;16.77;;;23.40;55.60;;;;;;6180972;28;83168;-64
2021/09/09 07:22:47;;;;;;;27.27;15.57;;;23.30;55.50;;;;;;6182922;28;83214;-65
2021/09/09 07:25:48;;;;;;;29.17;15.88;;;23.40;55.60;;;;;;6174229;28;85018;-65
2021/09/09 07:28:48;;;;;;;35.13;14.80;;;23.40;55.60;;;;;;6173705;28;83513;-63
2021/09/09 07:31:49;;;;;;;20.45;10.98;;;23.40;55.20;;;;;;6171356;28;84057;-62
2021/09/09 07:34:50;;;;;;;22.00;9.68;;;23.30;51.60;;;;;;6175378;28;83040;-62
2021/09/09 07:37:50;;;;;;;11.45;7.57;;;23.30;49.30;;;;;;6182731;28;82671;-64
2021/09/09 07:40:51;;;;;;;10.95;6.65;;;23.20;49.10;;;;;;6176688;28;80397;-62
2021/09/09 07:43:51;;;;;;;9.88;6.32;;;23.10;48.40;;;;;;6183875;28;80251;-63
2021/09/09 07:46:52;;;;;;;12.63;6.82;;;23.10;48.80;;;;;;6184289;28;80517;-63
2021/09/09 07:49:52;;;;;;;11.07;6.40;;;23.10;48.70;;;;;;6174359;28;80488;-63
2021/09/09 07:52:53;;;;;;;11.95;6.60;;;23.20;48.90;;;;;;6177297;28;80786;-63
2021/09/09 07:55:53;;;;;;;10.05;6.57;;;23.30;48.70;;;;;;6176692;28;80449;-62
2021/09/09 07:58:54;;;;;;;10.25;7.47;;;23.30;47.90;;;;;;6182486;28;80685;-63
2021/09/09 08:01:54;;;;;;;11.40;6.82;;;23.30;48.20;;;;;;6178701;28;81078;-63
2021/09/09 08:04:55;;;;;;;12.63;6.38;;;23.30;48.40;;;;;;6175985;28;80833;-64
2021/09/09 08:07:55;;;;;;;12.98;6.80;;;23.30;47.90;;;;;;6180633;28;80891;-63
2021/09/09 08:10:56;;;;;;;12.73;6.30;;;23.40;48.10;;;;;;6184340;28;80641;-64
2021/09/09 08:13:56;;;;;;;17.00;6.57;;;23.40;47.10;;;;;;6175784;28;81438;-64
2021/09/09 08:16:57;;;;;;;12.43;5.90;;;23.40;46.60;;;;;;6178755;28;82045;-63
2021/09/09 08:19:57;;;;;;;11.15;7.10;;;23.40;46.90;;;;;;6180423;28;81024;-64
2021/09/09 08:22:58;;;;;;;13.52;6.95;;;23.50;47.00;;;;;;6178855;28;80472;-66
2021/09/09 08:25:58;;;;;;;14.35;6.45;;;23.50;46.50;;;;;;6178524;28;81283;-64
2021/09/09 08:28:59;;;;;;;16.55;6.65;;;23.50;46.20;;;;;;6181568;28;80572;-67
2021/09/09 08:31:59;;;;;;;9.82;6.05;;;23.50;45.90;;;;;;6180719;28;81002;-65
2021/09/09 08:35:00;;;;;;;11.20;6.75;;;23.60;45.60;;;;;;6181235;28;80785;-65
2021/09/09 08:38:00;;;;;;;15.15;6.47;;;23.50;44.80;;;;;;6178697;28;81454;-63
2021/09/09 08:41:00;;;;;;;12.32;6.45;;;23.50;44.60;;;;;;6181511;28;80568;-63
2021/09/09 08:44:01;;;;;;;13.10;6.30;;;23.60;45.10;;;;;;6176036;28;80606;-64
2021/09/09 08:47:01;;;;;;;12.05;6.20;;;23.60;44.90;;;;;;6180733;28;81727;-63
2021/09/09 08:50:02;;;;;;;14.25;6.22;;;23.70;45.10;;;;;;6177696;28;82871;-62
2021/09/09 08:53:02;;;;;;;9.05;5.80;;;23.70;44.80;;;;;;6179729;28;80720;-63
2021/09/09 08:56:03;;;;;;;17.65;6.25;;;23.70;44.80;;;;;;6182189;28;80301;-62
2021/09/09 08:59:03;;;;;;;9.70;5.20;;;23.80;44.20;;;;;;6179284;28;80590;-63
2021/09/09 09:02:04;;;;;;;9.15;5.88;;;23.80;44.50;;;;;;6182103;28;80737;-64
2021/09/09 09:05:04;;;;;;;10.63;5.85;;;23.80;44.00;;;;;;6181829;28;81586;-62
2021/09/09 09:08:05;;;;;;;8.90;5.72;;;23.80;43.40;;;;;;6174945;28;80744;-63
2021/09/09 09:11:05;;;;;;;11.98;6.50;;;23.80;43.00;;;;;;6182120;28;80373;-64
2021/09/09 09:14:06;;;;;;;8.82;5.53;;;23.90;43.10;;;;;;6179668;28;81092;-63
2021/09/09 09:17:06;;;;;;;10.00;5.10;;;23.90;43.20;;;;;;6176134;28;81264;-64
2021/09/09 09:20:07;;;;;;;7.10;5.07;;;24.00;43.40;;;;;;6180516;28;81267;-64
2021/09/09 09:23:07;;;;;;;8.35;5.50;;;24.00;43.30;;;;;;6178889;28;82716;-64
2021/09/09 09:26:08;;;;;;;13.10;5.93;;;24.00;41.90;;;;;;6178615;28;80389;-66
2021/09/09 09:29:08;;;;;;;9.10;5.30;;;24.10;41.40;;;;;;6175235;28;81150;-64
2021/09/09 09:32:09;;;;;;;6.80;4.88;;;24.00;42.20;;;;;;6175320;28;81508;-64
2021/09/09 09:35:09;;;;;;;6.47;5.18;;;24.10;41.10;;;;;;6178274;28;81112;-64
2021/09/09 09:38:10;;;;;;;10.73;5.55;;;24.20;41.70;;;;;;6181380;28;80666;-64
2021/09/09 09:41:11;;;;;;;8.52;5.68;;;24.20;41.30;;;;;;6172687;28;80526;-64
2021/09/09 09:44:13;;;;;;;6.47;4.90;;;24.30;40.20;;;;;;6177075;28;82426;-64
2021/09/09 09:47:14;;;;;;;10.52;5.88;;;24.30;40.40;;;;;;6173780;28;80299;-66
2021/09/09 09:50:14;;;;;;;10.88;5.78;;;24.40;40.10;;;;;;6176899;28;80503;-64
2021/09/09 09:53:15;;;;;;;10.52;5.80;;;24.40;40.20;;;;;;6173593;28;80732;-64
2021/09/09 09:56:16;;;;;;;9.07;4.85;;;24.40;39.50;;;;;;6176401;28;80558;-63
2021/09/09 09:59:16;;;;;;;7.72;5.20;;;24.50;39.70;;;;;;6179402;28;81511;-64
2021/09/09 10:02:17;;;;;;;11.55;5.00;;;24.50;39.10;;;;;;6179687;28;80967;-64
2021/09/09 10:05:17;;;;;;;10.70;4.97;;;24.50;37.70;;;;;;6179866;28;81959;-63
2021/09/09 10:08:18;;;;;;;7.40;4.43;;;24.60;37.00;;;;;;6183609;28;82367;-63
2021/09/09 10:11:18;;;;;;;7.65;5.15;;;24.60;36.20;;;;;;6175566;28;80100;-64
2021/09/09 10:14:19;;;;;;;7.10;5.05;;;24.60;36.90;;;;;;6181965;28;80963;-64
2021/09/09 10:17:19;;;;;;;6.82;5.10;;;24.60;37.10;;;;;;6177731;28;87889;-62
2021/09/09 10:20:20;;;;;;;9.90;4.68;;;24.70;37.50;;;;;;6182457;28;81569;-65
2021/09/09 10:23:21;;;;;;;10.63;5.10;;;24.80;37.90;;;;;;6182646;28;80368;-64
2021/09/09 10:26:21;;;;;;;10.73;5.72;;;24.80;37.90;;;;;;6184799;28;81037;-65
2021/09/09 10:29:21;;;;;;;9.70;5.95;;;24.90;37.90;;;;;;6184891;28;80944;-65
2021/09/09 10:32:22;;;;;;;6.85;4.93;;;24.90;38.30;;;;;;6175403;28;83140;-64
2021/09/09 10:35:29;;;;;;;9.45;4.82;;;24.90;38.40;;;;;;6181875;28;80633;-64
2021/09/09 10:38:30;;;;;;;8.70;5.43;;;24.90;38.50;;;;;;6185214;28;80644;-64
2021/09/09 10:41:30;;;;;;;8.60;5.45;;;24.90;38.90;;;;;;6185567;28;82947;-64
2021/09/09 10:44:34;;;;;;;8.63;5.75;;;24.90;40.50;;;;;;6196188;28;81907;-65
2021/09/09 10:47:34;;;;;;;12.73;5.38;;;25.00;40.50;;;;;;6181866;28;81886;-64
2021/09/09 10:50:35;;;;;;;12.50;5.20;;;24.90;41.00;;;;;;6192333;28;81500;-65
2021/09/09 10:53:35;;;;;;;9.98;5.63;;;25.00;40.30;;;;;;6183938;28;83230;-61
2021/09/09 10:56:36;;;;;;;22.77;5.75;;;25.00;40.00;;;;;;6183295;28;83451;-63
2021/09/09 10:59:36;;;;;;;12.65;5.00;;;25.00;39.10;;;;;;6175357;28;80679;-61
2021/09/09 11:02:37;;;;;;;10.73;5.75;;;25.10;39.90;;;;;;6176300;28;81765;-61
2021/09/09 11:05:37;;;;;;;6.63;4.82;;;25.10;39.60;;;;;;6192873;28;80882;-62
2021/09/09 11:08:38;;;;;;;7.93;5.07;;;25.20;39.30;;;;;;6184178;28;83362;-61
2021/09/09 11:11:40;;;;;;;12.70;5.45;;;25.20;40.40;;;;;;6184223;28;80426;-62
2021/09/09 11:14:40;;;;;;;12.43;4.30;;;25.20;41.00;;;;;;6187375;28;86372;-63
2021/09/09 11:17:41;;;;;;;11.23;4.95;;;25.20;38.60;;;;;;6184017;28;80576;-63
2021/09/09 11:20:41;;;;;;;7.38;4.82;;;25.20;39.40;;;;;;6181510;28;81260;-64
2021/09/09 11:23:42;;;;;;;8.13;4.38;;;25.30;37.90;;;;;;6182914;28;81066;-63
2021/09/09 11:26:42;;;;;;;8.68;5.35;;;25.30;39.80;;;;;;6189080;28;81538;-63
2021/09/09 11:29:43;;;;;;;8.57;4.88;;;25.20;41.30;;;;;;6182652;28;81437;-63
2021/09/09 11:32:43;;;;;;;9.38;5.28;;;25.20;41.90;;;;;;6183905;28;80374;-62
2021/09/09 11:35:44;;;;;;;6.50;4.75;;;25.30;40.50;;;;;;6174221;28;82137;-62
2021/09/09 11:38:44;;;;;;;8.63;5.80;;;25.30;38.90;;;;;;6183387;28;80732;-63
2021/09/09 11:41:45;;;;;;;5.95;4.80;;;25.40;39.00;;;;;;6181139;28;80445;-63
2021/09/09 11:44:46;;;;;;;8.20;5.28;;;25.40;39.40;;;;;;6177031;28;80717;-63
2021/09/09 11:47:47;;;;;;;7.70;5.15;;;25.50;40.20;;;;;;6182156;28;81298;-64
2021/09/09 11:50:47;;;;;;;8.40;5.28;;;25.50;40.00;;;;;;6180441;28;82665;-62
2021/09/09 11:53:48;;;;;;;8.48;5.57;;;25.50;40.00;;;;;;6182780;28;80347;-64
2021/09/09 11:56:48;;;;;;;9.02;5.47;;;25.50;40.20;;;;;;6184461;28;80589;-62
2021/09/09 11:59:49;;;;;;;6.72;5.32;;;25.50;40.30;;;;;;6192722;28;83352;-62
2021/09/09 12:02:49;;;;;;;8.90;5.45;;;25.50;40.30;;;;;;6181972;28;82599;-63
2021/09/09 12:05:50;;;;;;;10.20;5.85;;;25.50;40.50;;;;;;6186352;28;80797;-63
2021/09/09 12:08:50;;;;;;;9.50;5.80;;;25.60;40.40;;;;;;6183898;28;80482;-64
2021/09/09 12:11:51;;;;;;;8.23;5.70;;;25.60;40.60;;;;;;6185729;28;81637;-64
2021/09/09 12:14:51;;;;;;;8.52;6.00;;;25.60;41.40;;;;;;6185286;28;80790;-64
2021/09/09 12:17:51;;;;;;;9.73;5.78;;;25.60;40.80;;;;;;6185622;28;81414;-65
2021/09/09 12:20:52;;;;;;;19.75;11.15;;;25.50;40.90;;;;;;6183573;28;81131;-64
2021/09/09 12:23:52;;;;;;;16.70;8.05;;;25.50;41.20;;;;;;6176655;28;83076;-65
2021/09/09 12:26:53;;;;;;;11.35;7.47;;;25.50;41.10;;;;;;6180102;28;82950;-65
2021/09/09 12:29:53;;;;;;;15.07;7.28;;;25.50;41.30;;;;;;6182286;28;82422;-64
2021/09/09 12:32:54;;;;;;;10.63;6.85;;;25.50;42.00;;;;;;6182647;28;80811;-64
2021/09/09 12:35:55;;;;;;;12.50;6.82;;;25.60;41.60;;;;;;6169591;28;82558;-64
2021/09/09 12:38:55;;;;;;;10.57;5.80;;;25.70;41.50;;;;;;6172709;28;81939;-65
2021/09/09 12:41:56;;;;;;;11.20;7.20;;;25.60;41.90;;;;;;6182375;28;80272;-65
2021/09/09 12:44:56;;;;;;;9.18;6.70;;;25.50;42.50;;;;;;6183859;28;81243;-65
2021/09/09 12:47:57;;;;;;;10.70;6.68;;;25.50;42.90;;;;;;6178579;28;80415;-65
2021/09/09 12:50:58;;;;;;;12.98;6.55;;;25.60;42.50;;;;;;6177985;28;81115;-66
2021/09/09 12:53:58;;;;;;;10.93;6.43;;;25.50;42.70;;;;;;6156714;28;80882;-65
2021/09/09 12:56:58;;;;;;;10.13;6.65;;;25.50;43.20;;;;;;6178749;28;81819;-66
2021/09/09 12:59:59;;;;;;;10.63;6.63;;;25.50;43.50;;;;;;6184029;28;80805;-64
2021/09/09 13:02:59;;;;;;;10.95;6.35;;;25.50;44.10;;;;;;6197787;28;82144;-64
2021/09/09 13:06:00;;;;;;;8.80;6.70;;;25.50;44.40;;;;;;6199274;28;80455;-65
2021/09/09 13:09:00;;;;;;;10.38;6.88;;;25.40;45.00;;;;;;6184334;28;80449;-65
2021/09/09 13:12:01;;;;;;;8.70;6.20;;;25.40;45.10;;;;;;6179671;28;80710;-65
2021/09/09 13:15:01;;;;;;;8.05;6.43;;;25.50;43.10;;;;;;6176217;28;83199;-64
2021/09/09 13:18:02;;;;;;;12.18;6.95;;;25.50;43.20;;;;;;6188012;28;80608;-64
2021/09/09 13:21:03;;;;;;;14.63;6.93;;;25.40;44.10;;;;;;6176346;28;81933;-64
2021/09/09 13:24:04;;;;;;;9.45;6.32;;;25.40;44.50;;;;;;6159673;28;80589;-64
2021/09/09 13:27:04;;;;;;;10.10;6.97;;;25.40;44.50;;;;;;6185092;28;80854;-64
2021/09/09 13:30:04;;;;;;;11.38;6.78;;;25.30;45.40;;;;;;6190007;28;80460;-64
2021/09/09 13:33:05;;;;;;;10.27;6.07;;;25.30;45.10;;;;;;6183758;28;81960;-64
2021/09/09 13:36:06;;;;;;;9.10;6.57;;;25.30;44.90;;;;;;6185973;28;80298;-64
2021/09/09 13:39:06;;;;;;;13.00;7.10;;;25.30;45.30;;;;;;6174454;28;81202;-64
2021/09/09 13:42:06;;;;;;;11.18;6.43;;;25.40;44.70;;;;;;6179687;28;83065;-65
2021/09/09 13:45:08;;;;;;;13.07;7.07;;;25.40;44.30;;;;;;6182272;28;80639;-64
2021/09/09 13:48:08;;;;;;;8.50;6.63;;;25.50;44.20;;;;;;6180449;28;81155;-65
2021/09/09 13:51:09;;;;;;;11.55;6.82;;;25.50;44.80;;;;;;6175576;28;80868;-64
2021/09/09 13:54:09;;;;;;;13.35;7.03;;;25.40;45.40;;;;;;6182833;28;81566;-65
2021/09/09 13:57:10;;;;;;;9.07;6.85;;;25.40;45.40;;;;;;6199171;28;81288;-64
2021/09/09 14:00:10;;;;;;;11.02;7.35;;;25.40;45.20;;;;;;6192586;28;80695;-64
2021/09/09 14:03:11;;;;;;;12.57;6.68;;;25.20;45.50;;;;;;6184065;28;80808;-64
2021/09/09 14:06:11;;;;;;;12.82;7.70;;;25.20;45.90;;;;;;6184468;28;80723;-64
2021/09/09 14:09:12;;;;;;;9.52;6.80;;;25.20;45.60;;;;;;6180561;28;80634;-64
2021/09/09 14:12:12;;;;;;;10.57;7.00;;;25.20;45.60;;;;;;6180029;28;80707;-64
2021/09/09 14:15:13;;;;;;;9.75;6.95;;;25.20;45.80;;;;;;6181852;28;80484;-65
2021/09/09 14:18:13;;;;;;;9.20;7.03;;;25.20;45.80;;;;;;6185681;28;80539;-64
2021/09/09 14:21:14;;;;;;;10.38;7.20;;;25.10;45.80;;;;;;6181537;28;80844;-63
2021/09/09 14:24:14;;;;;;;10.82;7.18;;;25.10;45.90;;;;;;6181783;28;80509;-65
2021/09/09 14:27:15;;;;;;;11.13;7.10;;;25.10;46.30;;;;;;6180859;28;80309;-64
2021/09/09 14:30:17;;;;;;;12.32;6.93;;;25.10;46.80;;;;;;6182056;28;80344;-65
2021/09/09 14:33:18;;;;;;;10.60;6.90;;;25.10;46.20;;;;;;6187007;28;81035;-64
2021/09/09 14:36:18;;;;;;;13.07;7.75;;;25.10;46.10;;;;;;6177432;28;82084;-64
2021/09/09 14:39:20;;;;;;;13.32;7.85;;;25.00;46.50;;;;;;6160919;28;83363;-65
2021/09/09 14:42:22;;;;;;;10.10;7.15;;;25.00;46.40;;;;;;6178996;28;80542;-64
2021/09/09 14:45:22;;;;;;;11.63;6.97;;;24.90;46.40;;;;;;6182197;28;80435;-63
2021/09/09 14:48:23;;;;;;;12.82;7.43;;;24.90;46.10;;;;;;6198353;28;80714;-65
2021/09/09 14:51:23;;;;;;;10.45;7.28;;;24.80;46.30;;;;;;6182632;28;83269;-64
2021/09/09 14:54:25;;;;;;;10.48;6.95;;;24.80;46.70;;;;;;6182546;28;80548;-64
2021/09/09 14:57:25;;;;;;;10.57;6.82;;;24.80;46.60;;;;;;6180517;28;82056;-64
2021/09/09 15:00:26;;;;;;;10.13;6.93;;;24.80;47.10;;;;;;6177833;28;80936;-64
2021/09/09 15:03:27;;;;;;;11.25;7.47;;;24.80;46.90;;;;;;6180316;28;80861;-65
2021/09/09 15:06:27;;;;;;;12.45;7.63;;;24.80;46.90;;;;;;6183779;28;81168;-64
2021/09/09 15:09:28;;;;;;;12.93;7.00;;;24.80;47.30;;;;;;6185041;28;82299;-64
2021/09/09 15:12:28;;;;;;;10.35;6.93;;;24.80;46.90;;;;;;6177731;28;82870;-66
2021/09/09 15:15:29;;;;;;;13.55;8.18;;;24.90;47.00;;;;;;6184216;28;81830;-64
2021/09/09 15:18:29;;;;;;;13.15;6.75;;;24.80;47.10;;;;;;6185102;28;80730;-64
2021/09/09 15:21:30;;;;;;;10.80;6.97;;;24.80;47.20;;;;;;6175500;28;80376;-63
2021/09/09 15:24:30;;;;;;;13.02;7.80;;;24.80;47.20;;;;;;6185056;28;80371;-64